createdAt,value
2018-08-24T00:02:21.366Z,25.69
2018-08-24T00:07:25.306Z,25.69
2018-08-24T00:12:29.122Z,25.69
2018-08-24T00:17:32.878Z,25.65
2018-08-24T00:22:36.628Z,25.62
2018-08-24T00:27:40.432Z,25.59
2018-08-24T00:32:44.173Z,25.55
2018-08-24T00:37:47.979Z,25.51
2018-08-24T00:42:51.832Z,25.55
2018-08-24T00:47:55.603Z,25.50
2018-08-24T00:52:59.372Z,25.46
2018-08-24T00:58:03.229Z,25.43
2018-08-24T01:03:07.062Z,25.43
2018-08-24T01:08:10.817Z,25.41
2018-08-24T01:13:15.080Z,25.40
2018-08-24T01:18:20.694Z,25.35
2018-08-24T01:23:25.856Z,25.38
2018-08-24T01:28:30.481Z,25.37
2018-08-24T01:33:34.431Z,25.35
2018-08-24T01:38:38.198Z,25.33
2018-08-24T01:43:42.019Z,25.32
2018-08-24T01:48:45.754Z,25.33
2018-08-24T01:53:49.544Z,25.33
2018-08-24T01:58:53.407Z,25.32
2018-08-24T02:03:57.125Z,25.28
2018-08-24T02:09:00.965Z,25.28
2018-08-24T02:14:09.986Z,25.28
2018-08-24T02:19:15.124Z,25.29
2018-08-24T02:24:18.954Z,25.27
2018-08-24T02:29:22.686Z,25.26
2018-08-24T02:34:26.481Z,25.21
2018-08-24T02:39:30.274Z,25.16
2018-08-24T02:44:34.011Z,25.08
2018-08-24T02:49:37.792Z,24.97
2018-08-24T02:54:41.620Z,24.83
2018-08-24T02:59:45.669Z,24.75
2018-08-24T03:04:49.433Z,24.78
2018-08-24T03:09:53.314Z,24.68
2018-08-24T03:14:57.058Z,24.60
2018-08-24T03:20:00.840Z,24.59
2018-08-24T03:25:04.703Z,24.48
2018-08-24T03:30:08.533Z,24.42
2018-08-24T03:35:12.283Z,24.51
2018-08-24T03:40:16.154Z,24.46
2018-08-24T03:45:19.957Z,23.74
2018-08-24T03:50:23.664Z,23.07
2018-08-24T03:55:27.399Z,22.79
2018-08-24T04:00:31.157Z,22.46
2018-08-24T04:05:35.010Z,22.50
2018-08-24T04:10:38.966Z,22.27
2018-08-24T04:15:42.928Z,21.77
2018-08-24T04:20:46.699Z,22.02
2018-08-24T04:25:50.549Z,22.16
2018-08-24T04:30:54.287Z,22.06
2018-08-24T04:35:58.100Z,22.02
2018-08-24T04:41:01.860Z,22.27
2018-08-24T04:46:05.662Z,22.39
2018-08-24T04:51:09.399Z,22.26
2018-08-24T04:56:13.243Z,22.64
2018-08-24T05:01:16.947Z,22.92
2018-08-24T05:06:20.703Z,22.64
2018-08-24T05:11:24.475Z,22.87
2018-08-24T05:16:28.284Z,23.11
2018-08-24T05:21:32.093Z,23.13
2018-08-24T05:26:35.862Z,23.36
2018-08-24T05:31:39.593Z,23.39
2018-08-24T05:36:43.341Z,22.96
2018-08-24T05:41:47.091Z,22.69
2018-08-24T05:46:50.877Z,23.48
2018-08-24T05:51:54.630Z,23.06
2018-08-24T05:56:58.337Z,23.34
2018-08-24T06:02:02.115Z,23.00
2018-08-24T06:07:05.917Z,22.70
2018-08-24T06:12:09.689Z,22.78
2018-08-24T06:17:18.665Z,22.91
2018-08-24T06:22:22.399Z,22.68
2018-08-24T06:27:26.213Z,22.35
2018-08-24T06:32:29.962Z,22.08
2018-08-24T06:37:33.759Z,21.98
2018-08-24T06:42:37.531Z,22.14
2018-08-24T06:47:41.367Z,22.31
2018-08-24T06:52:45.069Z,22.34
2018-08-24T06:57:48.842Z,22.28
2018-08-24T07:02:52.863Z,22.32
2018-08-24T07:07:56.677Z,22.26
2018-08-24T07:13:00.530Z,22.37
2018-08-24T07:18:04.449Z,22.51
2018-08-24T07:23:08.281Z,22.39
2018-08-24T07:28:12.099Z,22.35
2018-08-24T07:33:15.939Z,22.25
2018-08-24T07:38:19.717Z,22.08
2018-08-24T07:43:23.612Z,22.67
2018-08-24T07:48:27.371Z,22.95
2018-08-24T07:53:31.139Z,23.04
2018-08-24T07:58:35.090Z,23.09
2018-08-24T08:03:38.833Z,23.11
2018-08-24T08:08:45.582Z,23.11
2018-08-24T08:13:49.391Z,23.11
2018-08-24T08:18:53.184Z,23.11
2018-08-24T08:23:56.968Z,23.14
2018-08-24T08:29:00.786Z,23.14
2018-08-24T08:34:04.681Z,23.36
2018-08-24T08:39:10.448Z,23.27
2018-08-24T08:44:15.113Z,23.23
2018-08-24T08:49:18.952Z,23.30
2018-08-24T08:54:22.683Z,23.44
2018-08-24T08:59:26.507Z,23.42
2018-08-24T09:04:30.261Z,23.48
2018-08-24T09:09:34.016Z,23.51
2018-08-24T09:14:37.772Z,23.49
2018-08-24T09:19:46.643Z,23.65
2018-08-24T09:24:55.683Z,23.66
2018-08-24T09:30:03.199Z,23.66
2018-08-24T09:35:06.943Z,23.74
2018-08-24T09:40:10.693Z,23.83
2018-08-24T09:45:14.437Z,23.89
2018-08-24T09:50:23.364Z,23.84
2018-08-24T09:55:31.195Z,23.82
2018-08-24T10:00:40.086Z,23.80
2018-08-24T10:05:49.110Z,23.81
2018-08-24T10:10:53.004Z,23.87
2018-08-24T10:15:56.726Z,23.91
2018-08-24T10:21:00.479Z,23.93
2018-08-24T10:26:04.207Z,24.10
2018-08-24T10:31:07.957Z,24.33
2018-08-24T10:36:11.740Z,24.24
2018-08-24T10:41:15.450Z,24.62
2018-08-24T10:46:19.726Z,24.60
2018-08-24T10:51:23.520Z,24.60
2018-08-24T10:56:33.684Z,24.65
2018-08-24T11:01:37.266Z,24.70
2018-08-24T11:06:40.918Z,24.73
2018-08-24T11:11:44.560Z,24.76
2018-08-24T11:16:48.173Z,24.80
2018-08-24T11:21:51.857Z,24.83
2018-08-24T11:26:56.889Z,24.85
2018-08-24T11:32:00.423Z,24.87
2018-08-24T11:37:04.196Z,24.90
2018-08-24T11:42:07.882Z,24.94
2018-08-24T11:47:14.505Z,25.00
2018-08-24T11:52:18.887Z,25.01
2018-08-24T11:57:22.639Z,25.06
2018-08-24T12:02:26.387Z,25.15
2018-08-24T12:07:30.020Z,25.24
2018-08-24T12:12:33.937Z,25.33
2018-08-24T12:17:38.375Z,25.40
2018-08-24T12:22:41.939Z,25.49
2018-08-24T12:27:45.571Z,25.56
2018-08-24T12:32:49.553Z,25.59
2018-08-24T12:37:53.387Z,25.62
2018-08-24T12:42:57.050Z,25.69
2018-08-24T12:48:00.733Z,25.70
2018-08-24T12:53:04.452Z,25.77
2018-08-24T12:58:08.106Z,25.78
2018-08-24T13:03:11.875Z,25.81
2018-08-24T13:08:16.758Z,25.83
2018-08-24T13:13:21.310Z,25.82
2018-08-24T13:18:25.504Z,25.87
2018-08-24T13:23:29.206Z,25.88
2018-08-24T13:28:32.837Z,25.87
2018-08-24T13:33:36.725Z,25.49
2018-08-24T13:38:40.554Z,25.77
2018-08-24T13:43:44.568Z,25.89
2018-08-24T13:48:49.103Z,25.90
2018-08-24T13:53:52.755Z,25.88
2018-08-24T13:58:56.503Z,25.89
2018-08-24T14:04:00.150Z,25.90
2018-08-24T14:09:04.010Z,25.92
2018-08-24T14:14:07.709Z,25.95
2018-08-24T14:19:11.580Z,25.98
2018-08-24T14:24:15.239Z,26.01
2018-08-24T14:29:18.940Z,26.02
2018-08-24T14:34:22.530Z,26.03
2018-08-24T14:39:26.126Z,26.02
2018-08-24T14:44:29.804Z,26.04
2018-08-24T14:49:33.428Z,26.04
2018-08-24T14:54:37.255Z,26.05
2018-08-24T14:59:40.867Z,26.07
2018-08-24T15:04:44.541Z,26.09
2018-08-24T15:09:48.460Z,26.09
2018-08-24T15:14:52.227Z,26.09
2018-08-24T15:19:55.908Z,26.10
2018-08-24T15:24:59.951Z,26.09
2018-08-24T15:30:04.375Z,26.05
2018-08-24T15:35:08.617Z,26.13
2018-08-24T15:40:12.290Z,26.12
2018-08-24T15:45:16.015Z,26.15
2018-08-24T15:50:19.828Z,26.17
2018-08-24T15:55:24.076Z,26.20
2018-08-24T16:00:27.823Z,26.23
2018-08-24T16:05:31.489Z,26.26
2018-08-24T16:10:35.153Z,26.28
2018-08-24T16:15:38.917Z,26.35
2018-08-24T16:20:42.921Z,26.38
2018-08-24T16:25:47.215Z,26.41
2018-08-24T16:30:51.002Z,25.64
2018-08-24T16:35:54.606Z,25.02
2018-08-24T16:40:58.215Z,24.71
2018-08-24T16:46:02.034Z,23.77
2018-08-24T16:51:05.719Z,23.87
2018-08-24T16:56:09.320Z,23.40
2018-08-24T17:01:13.055Z,23.38
2018-08-24T17:06:16.675Z,23.61
2018-08-24T17:11:20.246Z,23.83
2018-08-24T17:16:23.816Z,23.94
2018-08-24T17:21:27.419Z,24.36
2018-08-24T17:26:31.049Z,24.38
2018-08-24T17:31:34.650Z,24.64
2018-08-24T17:36:38.355Z,24.31
2018-08-24T17:41:42.096Z,24.23
2018-08-24T17:46:45.605Z,24.14
2018-08-24T17:51:49.293Z,24.00
2018-08-24T17:56:52.920Z,24.06
2018-08-24T18:01:56.610Z,23.97
2018-08-24T18:07:00.246Z,23.96
2018-08-24T18:12:03.981Z,23.93
2018-08-24T18:17:07.925Z,23.79
2018-08-24T18:22:11.777Z,23.99
2018-08-24T18:27:15.710Z,24.35
2018-08-24T18:32:19.475Z,24.43
2018-08-24T18:37:23.428Z,24.41
2018-08-24T18:42:27.266Z,24.21
2018-08-24T18:47:31.356Z,24.46
2018-08-24T18:52:35.080Z,24.85
2018-08-24T18:57:39.135Z,24.28
2018-08-24T19:02:43.053Z,24.17
2018-08-24T19:07:47.012Z,24.09
2018-08-24T19:12:51.173Z,24.07
2018-08-24T19:18:00.510Z,24.21
2018-08-24T19:23:04.925Z,24.50
2018-08-24T19:28:13.999Z,24.35
2018-08-24T19:33:17.895Z,24.11
2018-08-24T19:43:37.639Z,24.03
2018-08-24T19:48:46.551Z,24.38
2018-08-24T19:53:50.272Z,24.18
2018-08-24T19:58:59.028Z,24.14
2018-08-24T20:04:03.435Z,23.94
2018-08-24T20:09:14.990Z,23.89
2018-08-24T20:14:24.238Z,23.92
2018-08-24T20:19:28.768Z,24.27
2018-08-24T20:24:32.564Z,23.95
2018-08-24T20:29:36.176Z,23.88
2018-08-24T20:34:39.910Z,24.14
2018-08-24T20:39:43.703Z,24.48
2018-08-24T20:44:47.437Z,24.56
2018-08-24T20:49:51.114Z,24.24
2018-08-24T20:54:54.639Z,24.10
2018-08-24T20:59:58.246Z,23.91
2018-08-24T21:05:02.008Z,23.77
2018-08-24T21:10:05.947Z,23.73
2018-08-24T21:15:09.606Z,23.96
2018-08-24T21:20:13.283Z,23.83
2018-08-24T21:25:16.881Z,23.86
2018-08-24T21:30:20.587Z,23.93
2018-08-24T21:35:24.111Z,24.19
2018-08-24T21:40:27.741Z,24.52
2018-08-24T21:45:31.460Z,24.40
2018-08-24T21:50:35.100Z,24.09
2018-08-24T21:55:38.750Z,24.17
2018-08-24T22:00:43.359Z,24.19
2018-08-24T22:05:46.957Z,24.11
2018-08-24T22:10:50.562Z,24.25
2018-08-24T22:15:54.207Z,24.22
2018-08-24T22:20:57.816Z,24.71
2018-08-24T22:26:01.451Z,24.89
2018-08-24T22:31:05.416Z,24.83
2018-08-24T22:36:09.075Z,24.96
2018-08-24T22:41:12.807Z,24.97
2018-08-24T22:46:17.153Z,25.01
2018-08-24T22:51:20.896Z,25.14
2018-08-24T22:56:24.579Z,25.08
2018-08-24T23:01:28.312Z,25.06
2018-08-24T23:06:31.870Z,25.13
2018-08-24T23:11:35.462Z,25.24
2018-08-24T23:16:39.157Z,25.26
2018-08-24T23:21:42.781Z,25.25
2018-08-24T23:26:46.398Z,25.28
2018-08-24T23:31:50.244Z,25.30
2018-08-24T23:36:53.963Z,25.28
2018-08-24T23:41:57.596Z,25.24
2018-08-24T23:47:01.825Z,25.18
2018-08-24T23:52:05.644Z,25.22
2018-08-24T23:57:09.320Z,25.25
